Time;durP1;ratioP1;P1;durP2;ratioP2;P2;SDS_P1;SDS_P2;PMS_P1;PMS_P2;Temp;Humidity;BMP_temperature;BMP_pressure;BME280_temperature;BME280_humidity;BME280_pressure;Samples;Min_cycle;Max_cycle;Signal;HPM_P1;HPM_P2
2021/06/12 00:01:23;;;;;;;11.70;8.18;;;19.40;83.10;;;;;;4940383;29;20046;-78
2021/06/12 00:03:49;;;;;;;14.23;9.75;;;19.40;83.30;;;;;;4940230;29;20066;-78
2021/06/12 00:06:15;;;;;;;13.05;8.98;;;19.40;83.50;;;;;;4957079;29;20118;-78
2021/06/12 00:08:40;;;;;;;14.02;10.13;;;19.40;83.50;;;;;;4955554;29;20039;-78
2021/06/12 00:11:06;;;;;;;17.30;10.43;;;19.40;83.60;;;;;;4962985;29;20024;-78
2021/06/12 00:13:32;;;;;;;16.55;10.85;;;19.40;83.70;;;;;;4952715;29;20372;-78
2021/06/12 00:15:57;;;;;;;15.77;9.43;;;19.40;83.90;;;;;;4954613;29;20023;-78
2021/06/12 00:18:24;;;;;;;14.43;10.55;;;19.40;84.00;;;;;;4936863;29;20395;-79
2021/06/12 00:20:53;;;;;;;12.88;9.90;;;19.30;84.00;;;;;;4936996;29;20058;-79
2021/06/12 00:23:19;;;;;;;12.52;8.70;;;19.30;84.00;;;;;;4937223;29;20108;-79
2021/06/12 00:25:44;;;;;;;15.75;10.25;;;19.30;84.20;;;;;;4954518;29;20388;-79
2021/06/12 00:28:10;;;;;;;16.10;10.50;;;19.40;84.40;;;;;;4936900;29;20118;-78
2021/06/12 00:30:36;;;;;;;13.95;10.30;;;19.30;84.40;;;;;;4937057;29;20019;-79
2021/06/12 00:33:02;;;;;;;13.25;10.20;;;19.30;84.60;;;;;;4955326;28;20023;-80
2021/06/12 00:35:28;;;;;;;14.18;11.10;;;19.30;84.70;;;;;;4940534;29;20058;-76
2021/06/12 00:37:54;;;;;;;18.80;10.55;;;19.20;84.80;;;;;;4958908;29;20066;-79
2021/06/12 00:40:21;;;;;;;16.52;11.95;;;19.20;85.00;;;;;;4941045;29;20038;-78
2021/06/12 00:42:47;;;;;;;18.13;11.23;;;19.10;85.20;;;;;;4941288;29;20082;-78
2021/06/12 00:45:18;;;;;;;17.27;11.30;;;19.20;85.50;;;;;;4957994;29;20110;-79
2021/06/12 00:47:45;;;;;;;13.93;11.10;;;19.10;85.70;;;;;;4958213;29;20030;-79
2021/06/12 00:50:12;;;;;;;13.18;10.88;;;19.10;85.70;;;;;;4940786;29;20491;-79
2021/06/12 00:52:38;;;;;;;15.02;11.52;;;19.10;85.80;;;;;;4941305;29;20075;-79
2021/06/12 00:55:09;;;;;;;18.27;12.60;;;19.10;86.10;;;;;;4957692;29;20027;-79
2021/06/12 00:57:37;;;;;;;15.88;11.90;;;19.00;86.30;;;;;;4941756;29;20085;-79
2021/06/12 01:00:07;;;;;;;17.00;12.00;;;19.00;86.30;;;;;;4943067;29;20425;-78
2021/06/12 01:02:34;;;;;;;20.02;12.32;;;19.00;86.50;;;;;;4965895;29;20062;-78
2021/06/12 01:05:00;;;;;;;20.42;12.32;;;18.90;86.60;;;;;;4974400;29;20015;-78
2021/06/12 01:07:25;;;;;;;18.30;13.50;;;18.90;86.80;;;;;;4945967;29;20107;-78
2021/06/12 01:09:51;;;;;;;18.75;12.88;;;18.80;87.20;;;;;;4974534;29;20032;-79
2021/06/12 01:12:35;;;;;;;16.83;12.18;;;18.80;87.30;;;;;;4957608;29;20023;-77
2021/06/12 01:15:04;;;;;;;18.88;13.90;;;18.70;87.50;;;;;;4940210;29;20364;-77
2021/06/12 01:17:51;;;;;;;15.57;11.88;;;18.70;87.60;;;;;;4939986;29;20118;-78
2021/06/12 01:20:29;;;;;;;17.77;11.57;;;18.70;87.70;;;;;;4940410;29;20024;-78
2021/06/12 01:23:11;;;;;;;19.55;12.43;;;18.70;87.70;;;;;;4939857;29;20035;-80
2021/06/12 01:26:14;;;;;;;15.40;11.20;;;18.70;87.70;;;;;;4939901;29;20059;-79
2021/06/12 01:29:03;;;;;;;17.75;11.95;;;18.70;87.80;;;;;;4879040;29;20041;-78
2021/06/12 01:31:32;;;;;;;20.08;12.57;;;18.60;87.70;;;;;;4935353;29;20125;-80
2021/06/12 01:34:01;;;;;;;17.58;11.93;;;18.60;87.90;;;;;;4939801;29;20016;-78
2021/06/12 01:36:28;;;;;;;17.35;11.73;;;18.60;87.90;;;;;;4939729;29;20027;-78
2021/06/12 01:38:57;;;;;;;16.30;11.82;;;18.60;88.20;;;;;;4940018;29;20031;-77
2021/06/12 01:41:23;;;;;;;18.92;12.60;;;18.60;88.20;;;;;;4939579;29;20038;-78
2021/06/12 01:43:50;;;;;;;17.42;10.82;;;18.60;88.20;;;;;;4939716;28;20023;-76
2021/06/12 01:46:17;;;;;;;18.52;12.10;;;18.60;88.10;;;;;;4939029;29;20070;-78
2021/06/12 01:48:45;;;;;;;15.90;11.45;;;18.60;88.10;;;;;;4939591;29;20023;-78
2021/06/12 01:51:12;;;;;;;21.13;12.70;;;18.70;88.30;;;;;;4939485;29;20027;-77
2021/06/12 01:53:40;;;;;;;16.75;10.50;;;18.60;88.10;;;;;;4941770;29;20028;-78
2021/06/12 01:56:08;;;;;;;20.52;11.30;;;18.70;88.20;;;;;;4959613;29;20110;-78
2021/06/12 01:58:37;;;;;;;20.48;12.40;;;18.60;88.00;;;;;;4928133;29;20099;-79
2021/06/12 02:01:04;;;;;;;20.63;12.57;;;18.70;88.10;;;;;;4920926;29;20016;-79
2021/06/12 02:03:31;;;;;;;18.20;11.90;;;18.70;88.10;;;;;;4920780;29;20597;-79
2021/06/12 02:05:59;;;;;;;18.65;12.68;;;18.70;88.30;;;;;;4920814;29;20036;-79
2021/06/12 02:08:25;;;;;;;20.02;13.10;;;18.60;88.40;;;;;;4922566;29;20067;-80
2021/06/12 02:10:51;;;;;;;22.23;13.07;;;18.60;88.60;;;;;;4921680;29;20028;-79
2021/06/12 02:13:19;;;;;;;22.92;12.93;;;18.60;88.80;;;;;;4923451;29;20060;-78
2021/06/12 02:15:50;;;;;;;20.00;12.65;;;18.60;88.80;;;;;;4951248;29;20035;-78
2021/06/12 02:18:18;;;;;;;18.67;12.18;;;18.60;89.10;;;;;;4926895;29;20074;-79
2021/06/12 02:20:44;;;;;;;19.63;12.48;;;18.60;89.10;;;;;;4936003;29;20551;-79
2021/06/12 02:23:10;;;;;;;20.63;12.57;;;18.50;89.00;;;;;;4922002;29;20043;-78
2021/06/12 02:25:37;;;;;;;21.30;12.70;;;18.50;89.20;;;;;;4937906;29;20036;-79
2021/06/12 02:28:06;;;;;;;24.45;13.20;;;18.50;89.20;;;;;;4937579;29;20032;-78
2021/06/12 02:30:36;;;;;;;21.63;12.23;;;18.50;89.10;;;;;;4919990;29;20027;-78
2021/06/12 02:33:07;;;;;;;19.40;11.25;;;18.50;89.00;;;;;;4920145;29;20019;-78
2021/06/12 02:35:33;;;;;;;18.38;11.88;;;18.50;88.70;;;;;;4937023;29;20107;-79
2021/06/12 02:37:59;;;;;;;18.52;11.25;;;18.50;89.10;;;;;;4919893;29;20115;-80
2021/06/12 02:40:25;;;;;;;21.05;11.32;;;18.40;89.20;;;;;;4919728;29;20031;-80
2021/06/12 02:42:50;;;;;;;24.70;12.77;;;18.50;89.00;;;;;;4919355;29;20107;-79
2021/06/12 02:45:16;;;;;;;24.25;13.18;;;18.50;89.10;;;;;;4918919;29;20469;-79
2021/06/12 02:47:58;;;;;;;20.40;11.80;;;18.50;88.90;;;;;;4919667;29;20055;-79
2021/06/12 02:50:31;;;;;;;20.58;11.68;;;18.50;88.70;;;;;;4919451;29;20457;-80
2021/06/12 02:53:01;;;;;;;20.73;11.88;;;18.50;88.70;;;;;;4919314;29;20052;-79
2021/06/12 02:55:29;;;;;;;18.83;10.50;;;18.50;88.40;;;;;;4936243;29;20410;-80
2021/06/12 02:57:55;;;;;;;22.33;10.48;;;18.50;89.20;;;;;;4926277;29;20059;-80
2021/06/12 03:00:23;;;;;;;19.30;11.25;;;18.50;88.10;;;;;;4938149;29;20445;-78
2021/06/12 03:02:49;;;;;;;17.42;10.40;;;18.50;88.90;;;;;;4955376;29;20023;-78
2021/06/12 03:05:23;;;;;;;22.38;11.65;;;18.40;88.90;;;;;;4944587;29;20055;-79
2021/06/12 03:07:52;;;;;;;22.23;12.13;;;18.40;89.00;;;;;;4949725;29;20028;-79
2021/06/12 03:10:18;;;;;;;23.03;11.70;;;18.40;88.90;;;;;;4946333;29;20015;-79
2021/06/12 03:12:48;;;;;;;18.92;9.77;;;18.40;89.10;;;;;;4952495;29;20030;-78
2021/06/12 03:15:15;;;;;;;19.63;10.98;;;18.40;89.00;;;;;;4938191;29;20051;-77
2021/06/12 03:17:46;;;;;;;23.05;11.75;;;18.40;89.00;;;;;;4955036;29;20031;-78
2021/06/12 03:20:14;;;;;;;24.05;12.00;;;18.40;88.90;;;;;;4937710;29;20031;-79
2021/06/12 03:22:42;;;;;;;19.73;10.90;;;18.30;88.60;;;;;;4953430;29;20023;-78
2021/06/12 03:25:09;;;;;;;21.58;12.13;;;18.40;89.00;;;;;;4938128;29;20054;-77
2021/06/12 03:27:35;;;;;;;24.17;11.30;;;18.40;88.90;;;;;;4954934;29;20031;-78
2021/06/12 03:30:02;;;;;;;22.23;11.13;;;18.40;88.80;;;;;;4953607;29;20087;-79
2021/06/12 03:32:28;;;;;;;23.38;11.73;;;18.40;89.00;;;;;;4954925;29;20035;-78
2021/06/12 03:34:54;;;;;;;20.77;11.05;;;18.40;89.00;;;;;;4937434;29;20126;-77
2021/06/12 03:37:21;;;;;;;23.25;12.02;;;18.40;89.00;;;;;;4937497;29;20114;-78
2021/06/12 03:39:47;;;;;;;22.92;11.88;;;18.40;89.10;;;;;;4937749;29;20027;-78
2021/06/12 03:42:14;;;;;;;21.70;11.93;;;18.40;88.70;;;;;;4938268;29;20022;-78
2021/06/12 03:44:41;;;;;;;23.23;12.15;;;18.50;88.90;;;;;;4941004;29;20072;-78
2021/06/12 03:47:08;;;;;;;20.20;11.38;;;18.40;89.30;;;;;;4940066;29;20030;-79
2021/06/12 03:49:35;;;;;;;21.70;10.60;;;18.40;89.60;;;;;;4937206;29;20158;-79
2021/06/12 03:52:01;;;;;;;19.23;11.05;;;18.40;89.40;;;;;;4937251;29;20030;-77
2021/06/12 03:54:27;;;;;;;18.55;10.93;;;18.40;89.40;;;;;;4936940;29;20027;-77
2021/06/12 03:56:53;;;;;;;16.48;11.00;;;18.50;90.00;;;;;;4937223;29;20027;-79
2021/06/12 03:59:21;;;;;;;19.55;11.32;;;18.50;89.40;;;;;;4936710;29;20053;-78
2021/06/12 04:01:48;;;;;;;19.67;10.02;;;18.50;89.00;;;;;;4937329;29;20035;-77
2021/06/12 04:04:14;;;;;;;22.92;11.10;;;18.50;88.90;;;;;;4937330;29;20071;-78
2021/06/12 04:06:39;;;;;;;23.67;11.00;;;18.50;88.90;;;;;;4937290;29;20031;-79
2021/06/12 04:09:05;;;;;;;19.55;11.15;;;18.50;88.70;;;;;;4957840;28;20110;-78
2021/06/12 04:11:31;;;;;;;20.55;11.15;;;18.60;88.90;;;;;;4940997;29;20030;-78
2021/06/12 04:13:59;;;;;;;20.00;10.43;;;18.60;88.90;;;;;;4958590;29;20028;-79
2021/06/12 04:16:24;;;;;;;22.63;11.13;;;18.60;88.80;;;;;;4943873;29;20070;-78
2021/06/12 04:18:50;;;;;;;26.17;12.90;;;18.60;89.20;;;;;;4954190;29;20098;-78
2021/06/12 04:21:15;;;;;;;19.73;12.13;;;18.60;88.50;;;;;;4958319;28;20024;-78
2021/06/12 04:23:41;;;;;;;19.40;11.77;;;18.60;88.40;;;;;;4963395;29;20027;-77
2021/06/12 04:26:07;;;;;;;21.83;14.20;;;18.60;88.70;;;;;;4941031;29;20112;-79
2021/06/12 04:28:32;;;;;;;24.17;13.73;;;18.60;88.30;;;;;;4957797;29;20083;-77
2021/06/12 04:30:58;;;;;;;26.00;14.60;;;18.60;88.40;;;;;;4956706;29;20031;-78
2021/06/12 04:33:24;;;;;;;24.27;14.05;;;18.60;88.10;;;;;;4940525;29;20082;-77
2021/06/12 04:35:50;;;;;;;20.48;15.00;;;18.70;88.60;;;;;;4958228;29;20098;-76
2021/06/12 04:38:15;;;;;;;26.67;16.35;;;18.70;87.70;;;;;;4957509;29;20039;-78
2021/06/12 04:40:42;;;;;;;25.42;16.52;;;18.70;87.70;;;;;;4957482;29;20443;-78
2021/06/12 04:43:08;;;;;;;26.52;16.33;;;18.70;87.70;;;;;;4940688;29;20024;-78
2021/06/12 04:45:34;;;;;;;30.52;17.95;;;18.70;87.80;;;;;;4957581;29;20384;-79
2021/06/12 04:48:01;;;;;;;26.40;16.83;;;18.70;87.90;;;;;;4957904;29;20456;-79
2021/06/12 04:50:29;;;;;;;22.80;15.45;;;18.70;88.00;;;;;;4956353;29;20031;-79
2021/06/12 04:52:55;;;;;;;27.48;17.65;;;18.70;87.60;;;;;;4940753;29;20023;-79
2021/06/12 04:55:20;;;;;;;24.42;18.10;;;18.80;87.70;;;;;;4940360;29;20032;-78
2021/06/12 04:57:46;;;;;;;25.17;18.05;;;18.70;87.50;;;;;;4934497;29;20059;-79
2021/06/12 05:00:13;;;;;;;23.40;17.85;;;18.70;87.70;;;;;;4921291;29;20136;-77
2021/06/12 05:02:39;;;;;;;26.63;17.02;;;18.70;87.70;;;;;;4922024;29;20023;-77
2021/06/12 05:05:09;;;;;;;23.00;14.77;;;18.70;87.70;;;;;;4923526;29;20016;-78
2021/06/12 05:07:35;;;;;;;31.38;18.13;;;18.70;87.70;;;;;;4927107;29;20095;-79
2021/06/12 05:10:02;;;;;;;25.55;18.67;;;18.70;87.70;;;;;;4933335;29;20577;-78
2021/06/12 05:12:28;;;;;;;26.30;17.55;;;18.70;87.70;;;;;;4947683;29;20039;-79
2021/06/12 05:14:56;;;;;;;20.65;14.45;;;18.70;87.30;;;;;;4935228;29;20024;-78
2021/06/12 05:17:22;;;;;;;22.63;16.75;;;18.70;87.00;;;;;;4921217;29;20024;-77
2021/06/12 05:19:48;;;;;;;23.08;16.08;;;18.80;87.50;;;;;;4919331;29;20373;-77
2021/06/12 05:22:14;;;;;;;21.67;14.50;;;18.70;87.70;;;;;;4921730;29;20506;-76
2021/06/12 05:24:40;;;;;;;21.75;16.02;;;18.80;87.20;;;;;;4920594;29;20028;-78
2021/06/12 05:27:07;;;;;;;21.55;15.20;;;18.80;87.40;;;;;;4921184;29;20038;-77
2021/06/12 05:29:33;;;;;;;20.92;13.95;;;18.80;87.40;;;;;;4921484;29;20039;-77
2021/06/12 05:31:59;;;;;;;16.17;12.50;;;18.90;87.00;;;;;;4937226;29;20465;-79
2021/06/12 05:34:25;;;;;;;25.02;15.50;;;18.90;86.00;;;;;;4923262;29;20028;-78
2021/06/12 05:36:50;;;;;;;19.20;12.98;;;19.00;86.50;;;;;;4925606;29;20089;-79
2021/06/12 05:39:16;;;;;;;12.05;7.72;;;19.00;87.10;;;;;;4921477;29;20084;-77
2021/06/12 05:41:42;;;;;;;18.13;12.88;;;19.00;85.60;;;;;;4921806;29;20036;-79
2021/06/12 05:44:08;;;;;;;18.98;13.88;;;19.10;85.90;;;;;;4920425;29;20110;-77
2021/06/12 05:46:34;;;;;;;20.50;12.38;;;19.10;84.20;;;;;;4921036;29;20028;-78
2021/06/12 05:49:00;;;;;;;19.02;13.10;;;19.10;84.50;;;;;;4920998;29;20405;-79
2021/06/12 05:51:27;;;;;;;19.05;11.82;;;19.10;85.40;;;;;;4938395;29;20475;-78
2021/06/12 05:53:55;;;;;;;20.10;13.10;;;19.20;85.70;;;;;;4921489;29;20028;-78
2021/06/12 05:56:21;;;;;;;22.63;13.27;;;19.20;85.20;;;;;;4921678;29;20025;-79
2021/06/12 05:58:46;;;;;;;20.38;12.65;;;19.20;85.00;;;;;;4933598;29;20113;-78
2021/06/12 06:01:12;;;;;;;21.38;10.30;;;19.30;85.70;;;;;;4939527;29;20079;-79
2021/06/12 06:03:38;;;;;;;14.25;8.57;;;19.40;85.10;;;;;;4939585;29;20024;-78
2021/06/12 06:06:06;;;;;;;17.52;10.95;;;19.40;83.60;;;;;;4956778;29;20027;-79
2021/06/12 06:08:32;;;;;;;18.92;10.77;;;19.60;83.70;;;;;;4939573;29;20047;-77
2021/06/12 06:10:57;;;;;;;15.90;10.57;;;19.70;83.30;;;;;;4939874;29;20480;-78
2021/06/12 06:13:23;;;;;;;20.05;10.02;;;19.90;82.80;;;;;;4939605;29;20522;-78
2021/06/12 06:15:49;;;;;;;16.63;9.10;;;20.00;82.10;;;;;;4955149;29;20038;-77
2021/06/12 06:18:15;;;;;;;18.42;10.02;;;20.20;81.00;;;;;;4940755;29;20350;-79
2021/06/12 06:20:42;;;;;;;15.07;8.82;;;20.40;80.40;;;;;;4946927;29;20020;-78
2021/06/12 06:23:08;;;;;;;17.38;10.50;;;20.50;79.30;;;;;;4952926;29;20019;-79
2021/06/12 06:25:34;;;;;;;13.38;8.32;;;20.50;78.60;;;;;;4943164;29;20038;-78
2021/06/12 06:27:59;;;;;;;14.70;7.65;;;20.60;77.40;;;;;;4941656;29;20023;-77
2021/06/12 06:30:25;;;;;;;12.65;6.22;;;20.70;77.70;;;;;;4954584;28;20023;-75
2021/06/12 06:32:51;;;;;;;11.82;5.70;;;20.80;77.10;;;;;;4947570;29;20370;-79
2021/06/12 06:35:17;;;;;;;9.50;5.45;;;20.90;76.80;;;;;;4939358;29;20043;-78
2021/06/12 06:37:43;;;;;;;11.80;5.63;;;21.10;75.20;;;;;;4937548;29;20031;-78
2021/06/12 06:40:39;;;;;;;12.32;5.90;;;21.30;74.20;;;;;;4938289;29;20027;-79
2021/06/12 06:43:11;;;;;;;11.90;6.18;;;21.50;73.00;;;;;;4936498;29;20040;-77
2021/06/12 06:45:37;;;;;;;10.70;5.78;;;21.50;71.70;;;;;;4936954;29;20463;-80
2021/06/12 06:48:03;;;;;;;8.18;4.60;;;21.50;71.00;;;;;;4954382;29;20472;-78
2021/06/12 06:50:29;;;;;;;8.48;4.28;;;21.60;70.60;;;;;;4936987;29;20073;-76
2021/06/12 06:52:55;;;;;;;9.52;4.50;;;21.60;70.30;;;;;;4954032;29;20477;-76
2021/06/12 06:55:21;;;;;;;7.03;3.15;;;21.90;71.00;;;;;;4937382;29;20033;-76
2021/06/12 06:57:46;;;;;;;8.15;2.85;;;22.10;71.00;;;;;;4929710;29;20432;-76
2021/06/12 07:00:13;;;;;;;7.32;3.53;;;22.40;70.10;;;;;;4955650;29;20361;-76
2021/06/12 07:02:38;;;;;;;7.72;3.65;;;22.60;66.70;;;;;;4954921;29;20027;-77
2021/06/12 07:05:05;;;;;;;6.53;3.17;;;22.70;66.60;;;;;;4938178;29;20030;-76
2021/06/12 07:07:30;;;;;;;6.70;3.58;;;22.60;65.80;;;;;;4936821;29;20023;-77
2021/06/12 07:09:56;;;;;;;8.27;4.18;;;22.50;65.60;;;;;;4960348;29;20070;-76
2021/06/12 07:12:21;;;;;;;6.22;2.97;;;22.40;65.20;;;;;;4959798;29;20020;-75
2021/06/12 07:14:47;;;;;;;11.25;3.97;;;22.40;65.20;;;;;;4943830;29;20032;-75
2021/06/12 07:17:14;;;;;;;7.80;3.72;;;22.40;64.80;;;;;;4944134;29;20102;-76
2021/06/12 07:19:40;;;;;;;9.52;3.55;;;22.40;64.70;;;;;;4954008;29;20118;-77
2021/06/12 07:22:06;;;;;;;8.25;3.50;;;22.50;64.00;;;;;;4938465;29;20088;-77
2021/06/12 07:24:32;;;;;;;9.40;3.50;;;22.50;63.60;;;;;;4939235;29;20023;-76
2021/06/12 07:26:58;;;;;;;11.15;4.63;;;22.50;63.70;;;;;;4943601;29;20114;-76
2021/06/12 07:29:25;;;;;;;6.32;3.00;;;22.50;62.50;;;;;;4957863;29;20153;-76
2021/06/12 07:31:51;;;;;;;8.60;2.83;;;22.40;63.20;;;;;;4954981;29;20081;-76
2021/06/12 07:34:17;;;;;;;9.52;3.42;;;22.40;62.90;;;;;;4955521;29;20475;-77
2021/06/12 07:36:43;;;;;;;8.55;3.05;;;22.40;62.60;;;;;;4953607;29;20083;-76
2021/06/12 07:39:09;;;;;;;5.47;2.63;;;22.30;62.30;;;;;;4954723;29;20082;-77
2021/06/12 07:41:36;;;;;;;6.80;2.85;;;22.30;61.80;;;;;;4937394;28;20480;-76
2021/06/12 07:44:03;;;;;;;8.88;3.00;;;22.10;61.40;;;;;;4937853;29;20035;-75
2021/06/12 07:46:29;;;;;;;5.95;2.67;;;22.00;61.60;;;;;;4956739;29;20043;-77
2021/06/12 07:48:55;;;;;;;4.53;2.05;;;21.90;61.70;;;;;;4958986;29;20031;-76
2021/06/12 07:51:21;;;;;;;7.00;2.75;;;21.90;61.70;;;;;;4956195;29;20031;-76
2021/06/12 07:53:46;;;;;;;3.67;1.92;;;21.90;62.70;;;;;;4937385;29;20464;-76
2021/06/12 07:56:15;;;;;;;8.57;3.05;;;22.00;61.80;;;;;;4937749;29;20024;-78
2021/06/12 07:58:41;;;;;;;4.63;2.03;;;22.00;62.10;;;;;;4937927;29;20078;-78
2021/06/12 08:01:07;;;;;;;4.57;2.30;;;22.10;65.20;;;;;;4938487;29;20019;-77
2021/06/12 08:03:35;;;;;;;6.07;3.15;;;22.20;64.30;;;;;;4937326;29;20024;-76
2021/06/12 08:06:01;;;;;;;7.85;3.17;;;22.20;60.20;;;;;;4938869;29;20023;-77
2021/06/12 08:08:27;;;;;;;6.60;2.60;;;22.20;60.50;;;;;;4954838;29;20042;-77
2021/06/12 08:10:52;;;;;;;8.13;4.10;;;22.00;61.20;;;;;;4937574;29;20019;-77
2021/06/12 08:13:18;;;;;;;8.60;3.40;;;22.00;59.30;;;;;;4937935;29;20059;-78
2021/06/12 08:15:44;;;;;;;7.18;3.42;;;22.00;58.90;;;;;;4937454;29;20019;-77
2021/06/12 08:18:10;;;;;;;8.63;2.25;;;22.00;59.80;;;;;;4953623;29;20042;-75
2021/06/12 08:20:36;;;;;;;7.65;3.10;;;22.10;62.50;;;;;;4954865;29;20118;-81
2021/06/12 08:23:03;;;;;;;7.55;2.58;;;22.10;60.50;;;;;;4955109;29;20035;-76
2021/06/12 08:25:29;;;;;;;7.75;2.95;;;22.20;60.80;;;;;;4956049;29;20015;-76
2021/06/12 08:28:02;;;;;;;6.28;2.40;;;22.30;59.90;;;;;;4967504;29;20083;-76
2021/06/12 08:30:29;;;;;;;6.97;2.22;;;22.50;58.90;;;;;;4938764;29;20045;-76
2021/06/12 08:32:55;;;;;;;11.95;2.97;;;22.60;59.00;;;;;;4936691;29;20019;-76
2021/06/12 08:35:21;;;;;;;8.45;3.55;;;22.80;59.60;;;;;;4936549;29;20114;-76
2021/06/12 08:37:47;;;;;;;9.32;3.78;;;22.90;58.10;;;;;;4937059;29;20035;-77
2021/06/12 08:40:22;;;;;;;6.10;2.65;;;23.00;59.10;;;;;;4955704;29;20043;-75
2021/06/12 08:42:49;;;;;;;7.10;2.45;;;23.10;57.50;;;;;;4954786;29;20027;-76
2021/06/12 08:45:17;;;;;;;5.18;2.08;;;23.30;57.00;;;;;;4955587;29;20077;-77
2021/06/12 08:47:43;;;;;;;11.43;2.72;;;23.50;57.10;;;;;;4936386;29;20392;-76
2021/06/12 08:50:09;;;;;;;6.85;3.05;;;23.70;56.20;;;;;;4936541;29;20023;-77
2021/06/12 08:52:36;;;;;;;7.28;2.22;;;24.00;54.50;;;;;;4953808;29;20023;-76
2021/06/12 08:55:04;;;;;;;8.63;2.92;;;24.20;55.20;;;;;;4939312;29;20464;-76
2021/06/12 08:57:30;;;;;;;5.43;2.45;;;24.20;54.50;;;;;;4957834;29;20067;-76
2021/06/12 08:59:56;;;;;;;6.35;2.13;;;24.20;53.70;;;;;;4940351;29;20095;-77
2021/06/12 09:02:22;;;;;;;8.70;3.15;;;24.20;57.90;;;;;;4940210;29;20066;-76
2021/06/12 09:04:52;;;;;;;7.25;2.33;;;24.20;54.20;;;;;;4956095;29;20488;-76
2021/06/12 09:07:34;;;;;;;5.65;2.58;;;24.10;56.20;;;;;;4940348;29;20038;-76
2021/06/12 09:10:00;;;;;;;8.48;3.00;;;24.20;56.30;;;;;;4947656;29;20062;-76
2021/06/12 09:12:45;;;;;;;10.93;2.83;;;24.30;53.60;;;;;;4964616;29;20032;-76
2021/06/12 09:15:13;;;;;;;7.35;2.75;;;24.30;54.20;;;;;;4942786;29;20114;-76
2021/06/12 09:17:41;;;;;;;7.93;2.58;;;24.40;50.70;;;;;;4966565;29;20079;-75
2021/06/12 09:20:09;;;;;;;7.65;2.85;;;24.30;55.40;;;;;;4961261;29;20030;-77
2021/06/12 09:22:35;;;;;;;8.63;3.05;;;24.20;55.30;;;;;;4955490;29;20480;-77
2021/06/12 09:25:01;;;;;;;7.38;3.20;;;24.40;54.70;;;;;;4956920;29;20409;-76
2021/06/12 09:27:27;;;;;;;7.22;2.67;;;24.50;49.10;;;;;;4939373;29;20055;-77
2021/06/12 09:29:56;;;;;;;6.63;2.35;;;24.30;51.60;;;;;;4956574;29;20441;-76
2021/06/12 09:32:30;;;;;;;7.43;2.80;;;24.30;55.30;;;;;;4939637;29;20028;-76
2021/06/12 09:35:05;;;;;;;5.28;1.60;;;24.30;54.00;;;;;;4939510;29;20059;-76
2021/06/12 09:37:31;;;;;;;10.93;3.05;;;24.20;56.00;;;;;;4956189;29;20019;-77
2021/06/12 09:39:59;;;;;;;7.82;3.35;;;24.30;53.40;;;;;;4954694;29;20038;-76
2021/06/12 09:42:55;;;;;;;8.52;3.22;;;24.20;54.90;;;;;;4956405;29;20035;-74
2021/06/12 09:45:28;;;;;;;10.65;3.33;;;24.00;51.20;;;;;;4923416;29;20031;-75
2021/06/12 09:48:22;;;;;;;8.13;3.67;;;23.80;53.70;;;;;;4955990;29;20081;-76
2021/06/12 09:50:49;;;;;;;6.75;2.72;;;23.60;55.20;;;;;;4952772;28;20047;-75
2021/06/12 09:53:18;;;;;;;9.38;3.28;;;23.50;57.40;;;;;;4939338;29;20031;-77
2021/06/12 09:55:45;;;;;;;9.27;3.83;;;23.50;54.90;;;;;;4938704;29;20059;-76
2021/06/12 09:58:11;;;;;;;7.72;2.80;;;23.50;53.90;;;;;;4938665;29;20050;-77
2021/06/12 10:00:42;;;;;;;6.50;2.50;;;23.50;53.50;;;;;;4955238;29;20073;-77
2021/06/12 10:03:23;;;;;;;7.97;3.25;;;23.50;55.10;;;;;;4953994;29;20117;-76
2021/06/12 10:06:14;;;;;;;8.45;2.47;;;23.50;53.40;;;;;;4937692;29;20086;-77
2021/06/12 10:08:42;;;;;;;8.70;2.97;;;23.50;56.00;;;;;;4956415;29;20034;-75
2021/06/12 10:11:08;;;;;;;8.63;3.35;;;23.50;52.10;;;;;;4938844;29;20539;-77
2021/06/12 10:13:34;;;;;;;5.68;2.30;;;23.60;53.30;;;;;;4956231;29;20042;-77
2021/06/12 10:16:00;;;;;;;5.30;2.47;;;23.60;53.40;;;;;;4955949;29;20374;-77
2021/06/12 10:18:26;;;;;;;5.75;2.60;;;23.80;51.90;;;;;;4938993;29;20086;-77
2021/06/12 10:20:53;;;;;;;7.50;2.83;;;24.20;55.50;;;;;;4939220;29;20031;-77
2021/06/12 10:23:19;;;;;;;6.03;2.85;;;24.40;52.30;;;;;;4939261;29;20082;-76
2021/06/12 10:25:46;;;;;;;11.75;3.35;;;24.40;49.20;;;;;;4956330;29;20023;-77
2021/06/12 10:28:12;;;;;;;13.32;3.80;;;24.50;48.80;;;;;;4939569;29;20063;-77
2021/06/12 10:30:38;;;;;;;11.65;3.97;;;24.40;48.40;;;;;;4941618;29;20028;-77
2021/06/12 10:33:06;;;;;;;9.48;3.13;;;24.10;49.90;;;;;;4959847;29;20024;-77
2021/06/12 10:35:32;;;;;;;6.68;2.75;;;24.20;52.90;;;;;;4956350;29;20066;-78
2021/06/12 10:38:16;;;;;;;8.57;2.80;;;24.40;53.30;;;;;;4952438;28;20062;-77
2021/06/12 10:40:51;;;;;;;5.00;2.53;;;24.60;48.80;;;;;;4955375;29;20062;-77
2021/06/12 10:43:23;;;;;;;10.10;2.92;;;24.70;51.50;;;;;;4938280;29;20037;-77
2021/06/12 10:46:08;;;;;;;8.85;2.83;;;24.70;49.70;;;;;;4937891;29;20564;-78
2021/06/12 10:48:46;;;;;;;5.30;2.20;;;24.60;49.10;;;;;;4938169;29;20361;-79
2021/06/12 10:51:33;;;;;;;9.32;2.95;;;24.50;51.30;;;;;;4939523;29;20110;-77
2021/06/12 10:54:21;;;;;;;4.80;2.10;;;24.70;48.00;;;;;;4955585;29;20408;-77
2021/06/12 10:56:51;;;;;;;6.97;2.15;;;24.50;56.40;;;;;;4940042;29;20031;-77
2021/06/12 10:59:35;;;;;;;6.93;2.17;;;24.60;53.80;;;;;;4937795;29;20141;-77
2021/06/12 11:02:11;;;;;;;6.72;2.42;;;24.60;53.20;;;;;;4955719;29;20063;-77
2021/06/12 11:04:42;;;;;;;5.90;2.47;;;24.70;51.90;;;;;;4958950;29;20043;-77
2021/06/12 11:07:48;;;;;;;9.05;2.78;;;24.70;52.00;;;;;;4942594;29;20038;-77
2021/06/12 11:10:15;;;;;;;7.22;2.42;;;24.60;54.40;;;;;;4877696;29;20040;-77
2021/06/12 11:12:41;;;;;;;8.48;2.33;;;24.50;55.60;;;;;;4862724;29;20033;-78
2021/06/12 11:15:21;;;;;;;11.00;3.05;;;24.30;52.70;;;;;;4933256;29;20027;-77
2021/06/12 11:18:10;;;;;;;8.32;3.45;;;24.40;50.20;;;;;;4944542;29;20079;-76
2021/06/12 11:20:37;;;;;;;11.47;3.47;;;24.50;52.50;;;;;;4949983;29;20019;-77
2021/06/12 11:23:03;;;;;;;7.38;2.22;;;24.60;47.80;;;;;;4937763;29;20484;-77
2021/06/12 11:25:29;;;;;;;7.43;2.50;;;24.50;55.30;;;;;;4955025;29;20031;-77
2021/06/12 11:28:22;;;;;;;7.45;2.60;;;24.30;52.90;;;;;;4954967;29;20038;-77
2021/06/12 11:30:50;;;;;;;7.47;2.70;;;24.30;48.80;;;;;;4954792;29;20027;-78
2021/06/12 11:33:17;;;;;;;8.20;2.70;;;24.30;53.50;;;;;;4954708;29;20034;-78
2021/06/12 11:35:57;;;;;;;5.40;2.53;;;24.50;47.00;;;;;;4954533;29;20464;-78
2021/06/12 11:38:30;;;;;;;6.93;2.55;;;24.80;49.10;;;;;;4937257;29;20031;-78
2021/06/12 11:41:05;;;;;;;9.82;2.92;;;25.20;51.00;;;;;;4937466;29;20023;-77
2021/06/12 11:43:37;;;;;;;7.35;2.30;;;25.60;51.10;;;;;;4954431;29;20031;-78
2021/06/12 11:46:16;;;;;;;8.00;2.50;;;25.70;52.00;;;;;;4937508;29;20019;-78
2021/06/12 11:48:47;;;;;;;6.47;2.00;;;25.80;47.20;;;;;;4937213;29;20035;-77
2021/06/12 11:51:15;;;;;;;9.07;3.28;;;25.80;51.60;;;;;;4954555;29;20067;-77
2021/06/12 11:53:44;;;;;;;8.25;2.40;;;25.70;44.50;;;;;;4937366;29;20074;-78
2021/06/12 11:56:10;;;;;;;8.02;1.95;;;25.40;47.30;;;;;;4937099;29;20123;-77
2021/06/12 11:58:55;;;;;;;8.27;2.40;;;25.10;51.00;;;;;;4955439;28;20057;-77
2021/06/12 12:01:34;;;;;;;8.95;2.33;;;25.10;46.10;;;;;;4937436;29;20061;-78
2021/06/12 12:04:07;;;;;;;10.98;3.03;;;25.30;45.40;;;;;;4954540;29;20023;-77
2021/06/12 12:06:34;;;;;;;7.13;2.25;;;25.40;45.40;;;;;;4954108;29;20476;-78
2021/06/12 12:09:01;;;;;;;5.95;1.85;;;25.40;54.10;;;;;;4937457;29;20057;-77
2021/06/12 12:11:27;;;;;;;11.57;3.17;;;25.70;49.80;;;;;;4937629;29;20086;-77
2021/06/12 12:14:25;;;;;;;8.57;2.65;;;26.00;44.90;;;;;;4953682;29;20969;-77
2021/06/12 12:16:50;;;;;;;9.93;2.17;;;26.10;43.20;;;;;;4921223;29;20481;-78
2021/06/12 12:19:17;;;;;;;8.55;2.50;;;25.90;49.60;;;;;;4933093;29;20039;-77
2021/06/12 12:21:43;;;;;;;6.82;2.30;;;25.80;49.10;;;;;;4936775;29;20078;-77
2021/06/12 12:24:13;;;;;;;6.82;2.35;;;25.80;45.00;;;;;;4955238;29;20050;-78
2021/06/12 12:26:50;;;;;;;6.47;2.10;;;25.70;44.60;;;;;;4937445;29;20031;-78
2021/06/12 12:29:18;;;;;;;9.95;1.77;;;25.50;51.50;;;;;;4962707;28;20032;-77
2021/06/12 12:31:46;;;;;;;6.13;1.85;;;25.60;49.40;;;;;;4958950;29;20083;-76
2021/06/12 12:34:13;;;;;;;6.13;2.55;;;25.80;50.20;;;;;;4969795;29;20023;-75
2021/06/12 12:36:53;;;;;;;8.35;2.42;;;25.60;48.90;;;;;;4948084;29;20127;-78
2021/06/12 12:39:19;;;;;;;11.70;2.90;;;25.60;46.30;;;;;;4941359;29;20098;-76
2021/06/12 12:41:56;;;;;;;7.00;2.05;;;25.70;43.40;;;;;;4940381;29;20028;-77
2021/06/12 12:44:22;;;;;;;8.05;2.15;;;25.80;48.10;;;;;;4957893;29;20027;-77